Time;durP1;ratioP1;P1;durP2;ratioP2;P2;SDS_P1;SDS_P2;PMS_P1;PMS_P2;Temp;Humidity;BMP_temperature;BMP_pressure;BME280_temperature;BME280_humidity;BME280_pressure;Samples;Min_cycle;Max_cycle;Signal;HPM_P1;HPM_P2
2021/12/01 00:00:17;;;;;;;12.15;10.93;;;9.50;99.90;;;;;;5013341;28;20037;-63
2021/12/01 00:02:43;;;;;;;13.35;11.15;;;9.50;99.90;;;;;;5008464;28;20111;-63
2021/12/01 00:05:09;;;;;;;12.60;10.60;;;9.50;99.90;;;;;;5009374;28;20072;-64
2021/12/01 00:07:36;;;;;;;14.95;10.68;;;9.50;99.90;;;;;;5010254;28;20502;-64
2021/12/01 00:10:11;;;;;;;10.43;9.15;;;9.40;99.90;;;;;;5011820;28;20060;-64
2021/12/01 00:12:36;;;;;;;10.80;9.05;;;9.40;99.90;;;;;;5010167;28;20104;-64
2021/12/01 00:15:04;;;;;;;11.00;9.20;;;9.40;99.90;;;;;;5010881;28;20422;-63
2021/12/01 00:17:30;;;;;;;11.05;9.82;;;9.40;99.90;;;;;;5011292;28;20038;-63
2021/12/01 00:19:56;;;;;;;11.88;9.43;;;9.40;99.90;;;;;;5017516;28;20124;-64
2021/12/01 00:22:21;;;;;;;10.25;8.20;;;9.40;99.90;;;;;;5017664;28;20042;-63
2021/12/01 00:24:47;;;;;;;10.38;9.27;;;9.40;99.90;;;;;;5018372;28;20036;-64
2021/12/01 00:27:12;;;;;;;10.27;9.07;;;9.40;99.90;;;;;;5016317;28;20393;-64
2021/12/01 00:29:38;;;;;;;13.98;8.73;;;9.40;99.90;;;;;;5010814;28;20056;-64
2021/12/01 00:32:04;;;;;;;10.35;8.55;;;9.30;99.90;;;;;;5012997;28;20033;-64
2021/12/01 00:34:33;;;;;;;12.77;8.45;;;9.40;99.90;;;;;;5007911;28;20056;-64
2021/12/01 00:36:58;;;;;;;10.63;8.73;;;9.30;99.90;;;;;;5020221;28;20073;-64
2021/12/01 00:39:24;;;;;;;11.95;8.70;;;9.40;99.90;;;;;;5008539;28;20100;-63
2021/12/01 00:41:51;;;;;;;12.32;9.30;;;9.30;99.90;;;;;;5013348;28;20148;-64
2021/12/01 00:44:17;;;;;;;10.95;8.55;;;9.40;99.90;;;;;;5012566;28;20045;-64
2021/12/01 00:46:55;;;;;;;10.13;8.80;;;9.40;99.90;;;;;;5006523;28;20374;-63
2021/12/01 00:49:21;;;;;;;10.55;8.32;;;9.40;99.90;;;;;;5015014;28;20041;-63
2021/12/01 00:51:47;;;;;;;9.15;7.40;;;9.40;99.90;;;;;;5013451;28;20113;-63
2021/12/01 00:54:13;;;;;;;10.30;7.50;;;9.40;99.90;;;;;;5020127;28;20063;-64
2021/12/01 00:56:39;;;;;;;8.15;6.70;;;9.40;99.90;;;;;;5014787;28;20351;-64
2021/12/01 00:59:05;;;;;;;10.43;7.18;;;9.30;99.90;;;;;;5017594;28;20167;-64
2021/12/01 01:01:31;;;;;;;11.98;7.05;;;9.30;99.90;;;;;;5016013;28;20235;-63
2021/12/01 01:03:57;;;;;;;8.73;6.75;;;9.30;99.90;;;;;;5016498;28;20120;-64
2021/12/01 01:06:22;;;;;;;7.97;6.30;;;9.30;99.90;;;;;;5016383;28;20144;-63
2021/12/01 01:08:48;;;;;;;10.75;6.53;;;9.30;99.90;;;;;;5014621;28;20845;-64
2021/12/01 01:16:53;;;;;;;7.47;6.47;;;9.30;99.90;;;;;;5014846;28;20152;-63
2021/12/01 01:19:19;;;;;;;8.95;6.50;;;9.30;99.90;;;;;;5012239;28;20458;-64
2021/12/01 01:21:49;;;;;;;6.22;5.63;;;9.40;99.90;;;;;;5017298;28;20047;-63
2021/12/01 01:24:16;;;;;;;5.88;5.20;;;9.30;99.90;;;;;;5017558;28;20116;-63
2021/12/01 01:26:42;;;;;;;8.27;5.28;;;9.30;99.90;;;;;;5015193;28;20192;-63
2021/12/01 01:29:08;;;;;;;5.85;5.05;;;9.30;99.90;;;;;;5013269;28;20165;-63
2021/12/01 01:31:36;;;;;;;6.05;5.05;;;9.30;99.90;;;;;;5019433;28;20099;-64
2021/12/01 01:34:02;;;;;;;6.43;5.10;;;9.30;99.90;;;;;;5020968;28;20124;-64
2021/12/01 01:36:28;;;;;;;8.18;5.25;;;9.30;99.90;;;;;;5014469;28;20128;-63
2021/12/01 01:38:54;;;;;;;5.97;4.50;;;9.30;99.90;;;;;;5016298;28;20124;-64
2021/12/01 01:41:20;;;;;;;6.38;4.80;;;9.30;99.90;;;;;;5015201;28;20029;-63
2021/12/01 01:43:48;;;;;;;6.60;4.60;;;9.30;99.90;;;;;;5021112;28;20102;-64
2021/12/01 01:46:15;;;;;;;6.50;4.60;;;9.30;99.90;;;;;;5012914;28;20341;-64
2021/12/01 01:48:53;;;;;;;7.13;4.22;;;9.30;99.90;;;;;;5009978;28;20042;-63
2021/12/01 01:51:23;;;;;;;5.40;4.30;;;9.30;99.90;;;;;;5011916;28;20026;-63
2021/12/01 01:53:51;;;;;;;6.53;4.20;;;9.30;99.90;;;;;;5013728;28;20037;-63
2021/12/01 01:56:17;;;;;;;5.55;4.15;;;9.30;99.90;;;;;;5014672;28;20400;-63
2021/12/01 01:58:43;;;;;;;4.07;3.67;;;9.30;99.90;;;;;;5021405;28;20041;-63
2021/12/01 02:01:40;;;;;;;6.25;4.47;;;9.20;99.90;;;;;;5016420;28;20034;-63
2021/12/01 02:04:07;;;;;;;4.45;3.83;;;9.20;99.90;;;;;;5016283;28;20127;-63
2021/12/01 02:06:33;;;;;;;8.15;4.13;;;9.20;99.90;;;;;;5018910;28;20037;-64
2021/12/01 02:08:59;;;;;;;4.97;3.88;;;9.20;99.90;;;;;;5015999;28;20092;-64
2021/12/01 02:11:27;;;;;;;6.30;4.32;;;9.20;99.90;;;;;;5013972;28;20107;-63
2021/12/01 02:13:53;;;;;;;6.00;3.90;;;9.20;99.90;;;;;;5010341;28;20038;-63
2021/12/01 02:16:20;;;;;;;5.80;3.70;;;9.20;99.90;;;;;;5010946;28;20140;-63
2021/12/01 02:18:46;;;;;;;6.20;4.10;;;9.20;99.90;;;;;;5010471;28;20045;-63
2021/12/01 02:21:24;;;;;;;4.43;3.90;;;9.20;99.90;;;;;;5009428;28;20049;-63
2021/12/01 02:23:50;;;;;;;4.10;3.70;;;9.20;99.90;;;;;;5018917;28;20033;-63
2021/12/01 02:26:19;;;;;;;5.90;3.78;;;9.20;99.90;;;;;;5010354;28;20340;-63
2021/12/01 02:28:47;;;;;;;4.40;3.90;;;9.30;99.90;;;;;;5013124;28;20035;-63
2021/12/01 02:31:14;;;;;;;6.63;4.18;;;9.20;99.90;;;;;;5011797;28;20275;-63
2021/12/01 02:33:40;;;;;;;4.93;3.95;;;9.20;99.90;;;;;;5007447;28;20030;-63
2021/12/01 02:36:11;;;;;;;5.50;4.00;;;9.20;99.90;;;;;;5014324;28;20136;-63
2021/12/01 02:38:37;;;;;;;5.05;4.47;;;9.20;99.90;;;;;;5013360;28;20041;-63
2021/12/01 02:41:03;;;;;;;4.50;3.65;;;9.20;99.90;;;;;;5013534;28;20034;-63
2021/12/01 02:43:30;;;;;;;4.82;4.20;;;9.20;99.90;;;;;;5008412;28;20045;-63
2021/12/01 02:45:56;;;;;;;6.05;4.18;;;9.20;99.90;;;;;;5011907;28;20139;-63
2021/12/01 02:48:23;;;;;;;4.65;3.72;;;9.20;99.90;;;;;;5008406;28;20116;-63
2021/12/01 02:50:50;;;;;;;4.78;3.78;;;9.20;99.90;;;;;;5010309;28;20470;-63
2021/12/01 02:53:19;;;;;;;5.15;3.92;;;9.20;99.90;;;;;;5015257;28;20048;-63
2021/12/01 02:55:59;;;;;;;4.70;4.18;;;9.20;99.90;;;;;;5013259;28;20034;-64
2021/12/01 02:58:26;;;;;;;5.38;4.13;;;9.20;99.90;;;;;;5012292;28;20075;-64
2021/12/01 03:00:56;;;;;;;5.22;4.55;;;9.20;99.90;;;;;;5010704;28;20095;-63
2021/12/01 03:03:22;;;;;;;6.72;5.05;;;9.20;99.90;;;;;;5015158;28;20044;-64
2021/12/01 03:05:49;;;;;;;5.22;4.43;;;9.20;99.90;;;;;;5003412;28;20860;-64
2021/12/01 03:08:16;;;;;;;6.97;4.82;;;9.20;99.90;;;;;;5019931;28;20366;-64
2021/12/01 03:10:48;;;;;;;6.75;5.10;;;9.20;99.90;;;;;;5011276;28;20133;-63
2021/12/01 03:13:14;;;;;;;6.03;5.38;;;9.20;99.90;;;;;;5015453;28;20038;-64
2021/12/01 03:15:41;;;;;;;8.68;5.80;;;9.10;99.90;;;;;;5019316;28;20048;-64
2021/12/01 03:18:07;;;;;;;6.82;5.60;;;9.10;99.90;;;;;;5012128;28;20409;-63
2021/12/01 03:20:32;;;;;;;8.32;5.70;;;9.10;99.90;;;;;;5020315;28;20025;-64
2021/12/01 03:22:58;;;;;;;6.07;5.47;;;9.10;99.90;;;;;;5011864;28;20041;-63
2021/12/01 03:25:24;;;;;;;8.65;6.20;;;9.00;99.90;;;;;;5016855;28;20037;-64
2021/12/01 03:27:50;;;;;;;6.22;5.53;;;9.00;99.90;;;;;;5012301;28;20427;-63
2021/12/01 03:30:16;;;;;;;7.50;6.35;;;9.00;99.90;;;;;;5012522;28;20112;-63
2021/12/01 03:32:42;;;;;;;9.18;6.68;;;9.10;99.90;;;;;;5016299;28;20111;-63
2021/12/01 03:35:14;;;;;;;16.13;7.28;;;9.10;99.90;;;;;;5013399;28;20045;-64
2021/12/01 03:37:42;;;;;;;7.97;6.32;;;9.10;99.90;;;;;;5006820;28;20091;-64
2021/12/01 03:40:08;;;;;;;9.50;7.10;;;9.00;99.90;;;;;;5007054;28;20647;-63
2021/12/01 03:42:34;;;;;;;10.52;7.05;;;9.10;99.90;;;;;;5013501;28;20108;-63
2021/12/01 03:45:00;;;;;;;8.93;7.32;;;9.00;99.90;;;;;;5006772;28;20041;-63
2021/12/01 03:47:27;;;;;;;10.43;8.40;;;8.90;99.90;;;;;;5013373;28;20034;-63
2021/12/01 03:49:53;;;;;;;9.27;8.10;;;8.90;99.90;;;;;;5009998;28;20184;-64
2021/12/01 03:52:20;;;;;;;11.23;8.57;;;8.90;99.90;;;;;;5013135;28;20030;-63
2021/12/01 03:54:47;;;;;;;10.68;9.45;;;8.90;99.90;;;;;;5017244;28;20034;-63
2021/12/01 03:57:14;;;;;;;15.48;10.20;;;8.80;99.90;;;;;;5014812;28;20053;-63
2021/12/01 03:59:41;;;;;;;14.82;10.70;;;8.80;99.90;;;;;;5016603;28;20433;-63
2021/12/01 04:02:06;;;;;;;13.35;10.50;;;8.70;99.90;;;;;;5015621;28;20060;-63
2021/12/01 04:04:32;;;;;;;16.30;10.82;;;8.70;99.90;;;;;;5011310;28;20037;-63
2021/12/01 04:06:58;;;;;;;12.88;10.98;;;8.70;99.90;;;;;;5015036;28;20428;-63
2021/12/01 04:09:25;;;;;;;13.95;11.48;;;8.70;99.90;;;;;;5012317;28;20117;-63
2021/12/01 04:11:50;;;;;;;12.63;10.38;;;8.70;99.90;;;;;;5008850;28;20135;-63
2021/12/01 04:14:16;;;;;;;14.10;10.70;;;8.70;99.90;;;;;;5017580;28;20136;-63
2021/12/01 04:16:42;;;;;;;14.23;11.10;;;8.60;99.90;;;;;;5010689;28;20049;-63
2021/12/01 04:19:08;;;;;;;16.40;10.57;;;8.60;99.90;;;;;;5013560;28;20125;-63
2021/12/01 04:21:33;;;;;;;13.82;9.90;;;8.60;99.90;;;;;;5011720;28;20042;-63
2021/12/01 04:23:59;;;;;;;14.90;10.43;;;8.70;99.90;;;;;;5018137;28;20073;-63
2021/12/01 04:26:27;;;;;;;11.43;9.50;;;8.60;99.90;;;;;;5012096;28;20053;-64
2021/12/01 04:28:54;;;;;;;11.45;9.68;;;8.60;99.90;;;;;;5001527;28;20068;-63
2021/12/01 04:31:21;;;;;;;10.88;8.73;;;8.60;99.90;;;;;;5013583;28;20044;-63
2021/12/01 04:33:47;;;;;;;13.32;8.02;;;8.60;99.90;;;;;;5014056;28;20058;-62
2021/12/01 04:36:16;;;;;;;9.85;7.82;;;8.60;99.90;;;;;;5018922;28;20048;-63
2021/12/01 04:38:42;;;;;;;10.07;8.35;;;8.60;99.90;;;;;;5015983;28;20599;-63
2021/12/01 04:41:08;;;;;;;10.13;7.60;;;8.60;99.90;;;;;;5013020;28;20037;-63
2021/12/01 04:43:37;;;;;;;9.30;7.45;;;8.60;99.90;;;;;;5010740;28;20592;-63
2021/12/01 04:46:03;;;;;;;10.00;7.22;;;8.60;99.90;;;;;;5020170;28;20045;-63
2021/12/01 04:48:29;;;;;;;7.90;6.35;;;8.60;99.90;;;;;;5020969;28;20316;-64
2021/12/01 04:50:55;;;;;;;7.43;6.53;;;8.50;99.90;;;;;;5021280;28;20087;-63
2021/12/01 04:53:21;;;;;;;10.18;6.90;;;8.60;99.90;;;;;;5021313;28;20041;-63
2021/12/01 04:55:47;;;;;;;8.60;6.80;;;8.60;99.90;;;;;;5020698;28;20037;-63
2021/12/01 04:58:13;;;;;;;8.32;6.53;;;8.60;99.90;;;;;;5020583;28;20318;-63
2021/12/01 05:00:39;;;;;;;8.52;6.68;;;8.60;99.90;;;;;;5013702;28;20102;-63
2021/12/01 05:03:05;;;;;;;9.00;6.50;;;8.50;99.90;;;;;;5008482;28;20117;-63
2021/12/01 05:05:30;;;;;;;7.35;5.85;;;8.50;99.90;;;;;;5014300;28;20053;-63
2021/12/01 05:07:57;;;;;;;7.15;5.32;;;8.50;99.90;;;;;;5022047;28;20473;-63
2021/12/01 05:10:22;;;;;;;9.20;6.40;;;8.50;99.90;;;;;;5016259;28;20785;-63
2021/12/01 05:12:48;;;;;;;8.68;5.43;;;8.50;99.90;;;;;;5019248;28;20033;-63
2021/12/01 05:15:14;;;;;;;8.20;5.53;;;8.50;99.90;;;;;;5009156;28;20395;-63
2021/12/01 05:17:39;;;;;;;8.02;5.28;;;8.60;99.90;;;;;;5018972;28;20387;-63
2021/12/01 05:20:07;;;;;;;7.18;5.10;;;8.60;99.90;;;;;;5013204;28;20442;-63
2021/12/01 05:22:34;;;;;;;7.35;4.68;;;8.60;99.90;;;;;;5015271;28;20038;-63
2021/12/01 05:25:01;;;;;;;5.93;4.53;;;8.60;99.90;;;;;;5011428;28;20090;-63
2021/12/01 05:27:27;;;;;;;5.68;3.92;;;8.60;99.90;;;;;;5021126;28;20092;-63
2021/12/01 05:29:52;;;;;;;5.63;4.00;;;8.60;99.90;;;;;;5012630;28;20045;-63
2021/12/01 05:32:20;;;;;;;7.35;4.45;;;8.60;99.90;;;;;;5016099;28;20120;-63
2021/12/01 05:34:46;;;;;;;5.97;3.78;;;8.60;99.90;;;;;;5012097;28;20037;-63
2021/12/01 05:37:11;;;;;;;5.70;3.88;;;8.60;99.90;;;;;;5012513;28;20034;-64
2021/12/01 05:39:41;;;;;;;4.85;3.55;;;8.60;99.90;;;;;;5014931;28;20061;-63
2021/12/01 05:42:08;;;;;;;5.05;3.20;;;8.60;99.90;;;;;;5014117;28;20121;-63
2021/12/01 05:44:35;;;;;;;4.85;3.33;;;8.60;99.90;;;;;;5011376;28;20156;-63
2021/12/01 05:47:01;;;;;;;5.00;3.33;;;8.60;99.90;;;;;;5012942;28;20117;-63
2021/12/01 05:49:26;;;;;;;4.03;2.67;;;8.60;99.90;;;;;;5010712;28;20044;-63
2021/12/01 05:51:52;;;;;;;4.85;3.28;;;8.60;99.90;;;;;;5012476;28;20041;-63
2021/12/01 05:54:19;;;;;;;3.05;2.65;;;8.60;99.90;;;;;;5018156;28;20487;-63
2021/12/01 05:56:45;;;;;;;6.50;3.08;;;8.60;99.90;;;;;;5015204;28;20159;-64
2021/12/01 05:59:10;;;;;;;4.13;2.90;;;8.60;99.90;;;;;;5013814;28;20125;-63
2021/12/01 06:01:36;;;;;;;4.75;3.33;;;8.60;99.90;;;;;;5017992;28;20442;-63
2021/12/01 06:04:02;;;;;;;4.00;2.90;;;8.60;99.90;;;;;;5015534;28;20038;-63
2021/12/01 06:06:28;;;;;;;3.60;2.72;;;8.70;99.90;;;;;;5018186;28;20049;-63
2021/12/01 06:08:55;;;;;;;4.68;2.60;;;8.70;99.90;;;;;;5013879;28;20401;-63
2021/12/01 06:11:22;;;;;;;5.28;2.60;;;8.70;99.90;;;;;;5010562;28;20056;-63
2021/12/01 06:13:51;;;;;;;4.30;3.00;;;8.60;99.90;;;;;;5014055;28;20120;-63
2021/12/01 06:16:24;;;;;;;3.40;2.58;;;8.60;99.90;;;;;;5006154;28;20030;-63
2021/12/01 06:18:50;;;;;;;4.18;2.45;;;8.70;99.90;;;;;;5007698;28;20543;-63
2021/12/01 06:21:16;;;;;;;5.40;2.40;;;8.70;99.90;;;;;;5011719;28;20037;-63
2021/12/01 06:23:43;;;;;;;3.15;2.80;;;8.60;99.90;;;;;;5014079;28;20100;-63
2021/12/01 06:26:09;;;;;;;5.05;2.78;;;8.70;99.90;;;;;;5017969;28;20045;-63
2021/12/01 06:28:34;;;;;;;4.65;2.63;;;8.70;99.90;;;;;;5014080;28;20033;-63
2021/12/01 06:31:00;;;;;;;4.13;2.70;;;8.70;99.90;;;;;;4997502;28;20047;-63
2021/12/01 06:33:26;;;;;;;3.55;2.60;;;8.70;99.90;;;;;;5013918;28;20108;-63
2021/12/01 06:35:52;;;;;;;3.60;2.72;;;8.70;99.90;;;;;;5012441;28;20080;-64
2021/12/01 06:38:19;;;;;;;4.03;2.90;;;8.60;99.90;;;;;;5011497;28;20052;-63
2021/12/01 06:40:46;;;;;;;3.67;2.70;;;8.60;99.90;;;;;;5014205;28;20079;-63
2021/12/01 06:43:12;;;;;;;4.03;2.60;;;8.50;99.90;;;;;;5010625;28;20025;-63
2021/12/01 06:45:38;;;;;;;5.22;2.75;;;8.50;99.90;;;;;;5014346;28;20048;-63
2021/12/01 06:48:04;;;;;;;4.28;2.38;;;8.50;99.90;;;;;;5010727;28;20497;-63
2021/12/01 06:50:30;;;;;;;3.72;2.42;;;8.50;99.90;;;;;;5015489;28;20045;-63
2021/12/01 06:52:55;;;;;;;4.25;2.60;;;8.50;99.90;;;;;;5015377;28;20512;-63
2021/12/01 06:55:21;;;;;;;4.63;2.53;;;8.50;99.90;;;;;;5014209;28;20185;-63
2021/12/01 06:57:48;;;;;;;4.28;2.42;;;8.60;99.90;;;;;;5013897;28;20052;-63
2021/12/01 07:00:15;;;;;;;2.35;2.00;;;8.60;99.90;;;;;;5014570;28;20030;-63
2021/12/01 07:02:41;;;;;;;2.35;2.08;;;8.60;99.90;;;;;;5016833;28;20057;-63
2021/12/01 07:05:08;;;;;;;4.70;2.88;;;8.60;99.90;;;;;;5013584;28;20038;-63
2021/12/01 07:07:33;;;;;;;6.75;2.10;;;8.60;99.90;;;;;;5012614;28;20427;-63
2021/12/01 07:09:59;;;;;;;2.83;2.30;;;8.60;99.90;;;;;;5011902;28;20210;-63
2021/12/01 07:12:25;;;;;;;2.17;1.80;;;8.60;99.90;;;;;;5010289;28;20049;-62
2021/12/01 07:14:51;;;;;;;3.35;1.90;;;8.60;99.90;;;;;;5009095;28;20317;-62
2021/12/01 07:17:18;;;;;;;1.52;1.33;;;8.60;99.90;;;;;;5025799;28;20041;-63
2021/12/01 07:19:44;;;;;;;2.40;1.42;;;8.60;99.90;;;;;;5011090;28;20094;-63
2021/12/01 07:22:09;;;;;;;2.15;1.60;;;8.70;99.90;;;;;;5015780;28;20060;-63
2021/12/01 07:24:35;;;;;;;2.70;1.25;;;8.70;99.90;;;;;;5011788;28;20041;-63
2021/12/01 07:27:01;;;;;;;1.38;1.13;;;8.70;99.90;;;;;;5012164;28;20484;-62
2021/12/01 07:29:26;;;;;;;2.10;1.42;;;8.70;99.90;;;;;;5014240;28;20048;-62
2021/12/01 07:31:55;;;;;;;1.90;1.30;;;8.70;99.90;;;;;;5009904;28;20178;-63
2021/12/01 07:34:21;;;;;;;1.42;1.27;;;8.70;99.90;;;;;;5009595;28;20041;-63
2021/12/01 07:36:47;;;;;;;1.58;1.00;;;8.70;99.90;;;;;;5016721;28;20404;-63
2021/12/01 07:39:12;;;;;;;1.77;1.35;;;8.70;99.90;;;;;;5013960;28;20354;-63
2021/12/01 07:41:38;;;;;;;1.75;1.20;;;8.70;99.90;;;;;;5011212;28;20037;-63
2021/12/01 07:44:04;;;;;;;1.13;1.00;;;8.70;99.90;;;;;;5006514;28;20113;-63
2021/12/01 07:46:29;;;;;;;1.40;1.30;;;8.70;99.90;;;;;;5012940;28;20064;-63
2021/12/01 07:48:55;;;;;;;2.00;1.15;;;8.70;99.90;;;;;;5009878;28;20065;-62
2021/12/01 07:51:21;;;;;;;2.42;1.10;;;8.70;99.90;;;;;;5013397;28;20052;-63
2021/12/01 07:53:46;;;;;;;1.65;1.25;;;8.70;99.90;;;;;;5010169;28;20037;-63
2021/12/01 07:56:12;;;;;;;1.73;1.20;;;8.70;99.90;;;;;;5009979;28;20048;-62
2021/12/01 07:58:38;;;;;;;3.40;1.30;;;8.70;99.90;;;;;;5009620;28;20501;-63
2021/12/01 08:01:04;;;;;;;1.70;1.35;;;8.70;99.90;;;;;;5012750;28;20033;-62
2021/12/01 08:03:29;;;;;;;1.17;1.08;;;8.70;99.90;;;;;;5008436;28;20324;-63
2021/12/01 08:05:55;;;;;;;3.33;1.08;;;8.70;99.90;;;;;;5013928;28;20056;-64
2021/12/01 08:08:21;;;;;;;2.47;1.60;;;8.70;99.90;;;;;;5007945;28;20180;-63
2021/12/01 08:10:46;;;;;;;1.77;1.33;;;8.70;99.90;;;;;;5009163;28;20029;-63
2021/12/01 08:13:12;;;;;;;1.67;1.15;;;8.70;99.90;;;;;;5013756;28;20191;-63
2021/12/01 08:15:38;;;;;;;1.35;1.20;;;8.70;99.90;;;;;;5008312;28;20045;-63
2021/12/01 08:18:04;;;;;;;1.40;1.13;;;8.70;99.90;;;;;;5008312;28;20077;-63
2021/12/01 08:20:29;;;;;;;1.48;1.20;;;8.70;99.90;;;;;;5009215;28;20584;-63
2021/12/01 08:22:55;;;;;;;2.30;1.10;;;8.70;99.90;;;;;;5011897;28;20029;-63
2021/12/01 08:25:22;;;;;;;1.10;1.00;;;8.70;99.90;;;;;;5009650;28;20037;-63
2021/12/01 08:27:48;;;;;;;1.35;1.00;;;8.70;99.90;;;;;;5015622;28;20064;-64
2021/12/01 08:30:15;;;;;;;1.98;1.23;;;8.70;99.90;;;;;;5006586;28;20072;-63
2021/12/01 08:32:45;;;;;;;1.70;1.25;;;8.80;99.90;;;;;;5008725;28;20036;-64
2021/12/01 08:35:12;;;;;;;1.42;1.33;;;8.80;99.90;;;;;;5010364;28;20045;-63
2021/12/01 08:37:37;;;;;;;1.35;1.00;;;8.80;99.90;;;;;;5010882;28;20046;-63
2021/12/01 08:40:03;;;;;;;3.83;1.10;;;8.80;99.90;;;;;;5011454;28;20048;-63
2021/12/01 08:42:29;;;;;;;1.42;1.10;;;8.80;99.90;;;;;;5012115;28;20417;-63
2021/12/01 08:44:55;;;;;;;1.25;1.00;;;8.80;99.90;;;;;;5010822;28;20053;-63
2021/12/01 08:47:24;;;;;;;1.60;0.95;;;8.80;99.90;;;;;;5010421;28;20038;-66
2021/12/01 08:49:50;;;;;;;1.30;0.85;;;8.80;99.90;;;;;;5014933;28;20034;-66
2021/12/01 08:52:16;;;;;;;2.85;0.82;;;8.90;99.90;;;;;;5010550;28;20038;-66
2021/12/01 08:54:41;;;;;;;3.33;0.90;;;8.80;99.90;;;;;;5007463;28;20620;-66
2021/12/01 08:57:07;;;;;;;0.90;0.80;;;8.80;99.90;;;;;;5011757;28;20046;-66
2021/12/01 08:59:32;;;;;;;1.27;1.10;;;8.90;99.90;;;;;;5010734;28;20061;-66
2021/12/01 09:02:00;;;;;;;1.58;1.00;;;8.80;99.90;;;;;;5013270;28;20109;-66
2021/12/01 09:04:26;;;;;;;1.20;1.00;;;8.80;99.90;;;;;;5014569;28;20595;-66
2021/12/01 09:06:52;;;;;;;1.30;1.10;;;8.80;99.90;;;;;;5009742;28;20065;-66
2021/12/01 09:09:18;;;;;;;1.10;1.00;;;8.80;99.90;;;;;;5014467;28;20064;-66
2021/12/01 09:11:52;;;;;;;0.73;0.73;;;8.90;99.90;;;;;;5009415;28;20053;-66
2021/12/01 09:14:20;;;;;;;3.05;1.10;;;8.90;99.90;;;;;;5013191;28;20048;-66
2021/12/01 09:16:46;;;;;;;1.45;0.90;;;8.90;99.90;;;;;;5010677;28;20042;-66
2021/12/01 09:19:12;;;;;;;3.55;1.27;;;8.90;99.90;;;;;;5018675;28;20129;-66
2021/12/01 09:21:39;;;;;;;1.00;0.90;;;8.90;99.90;;;;;;5014438;28;20115;-66
2021/12/01 09:24:05;;;;;;;1.45;0.88;;;8.90;99.90;;;;;;5012779;28;20091;-66
2021/12/01 09:26:32;;;;;;;2.15;0.98;;;8.90;99.90;;;;;;5011663;28;20068;-66
2021/12/01 09:28:58;;;;;;;1.10;1.00;;;8.90;99.90;;;;;;5011519;28;20934;-66
2021/12/01 09:31:24;;;;;;;1.92;0.90;;;9.00;99.90;;;;;;5009626;28;20481;-66
2021/12/01 09:33:49;;;;;;;1.08;0.88;;;8.90;99.90;;;;;;5011368;28;20034;-65
2021/12/01 09:36:16;;;;;;;1.27;0.88;;;8.90;99.90;;;;;;5010431;28;20085;-65
2021/12/01 09:38:42;;;;;;;0.90;0.70;;;8.90;99.90;;;;;;5012349;28;20137;-65
2021/12/01 09:41:09;;;;;;;1.33;0.70;;;9.10;99.90;;;;;;5010393;28;20048;-65
2021/12/01 09:43:35;;;;;;;1.42;0.80;;;9.00;99.90;;;;;;5007948;28;20522;-66
2021/12/01 09:46:04;;;;;;;1.27;0.73;;;9.00;99.90;;;;;;5011271;28;20095;-65
2021/12/01 09:48:31;;;;;;;1.33;0.70;;;9.00;99.90;;;;;;5012808;28;20037;-66
2021/12/01 09:50:57;;;;;;;1.05;0.70;;;8.90;99.90;;;;;;5015834;28;20037;-66
2021/12/01 09:53:22;;;;;;;1.20;0.68;;;9.00;99.90;;;;;;5013526;28;20500;-66
2021/12/01 09:55:48;;;;;;;1.15;0.70;;;9.00;99.90;;;;;;5012441;28;20041;-66
2021/12/01 09:58:20;;;;;;;1.13;1.02;;;9.10;99.90;;;;;;5013241;28;20413;-66
2021/12/01 10:00:54;;;;;;;1.80;0.80;;;9.10;99.90;;;;;;5012198;28;20376;-66
2021/12/01 10:03:21;;;;;;;1.30;0.93;;;9.10;99.90;;;;;;5015706;28;20034;-66
2021/12/01 10:05:49;;;;;;;1.10;0.65;;;9.10;99.90;;;;;;5012197;28;20590;-66
2021/12/01 10:08:27;;;;;;;0.80;0.70;;;9.20;99.90;;;;;;5011395;28;20038;-66
2021/12/01 10:10:54;;;;;;;0.60;0.60;;;9.20;99.90;;;;;;5019212;28;20029;-66
2021/12/01 10:13:31;;;;;;;1.23;0.90;;;9.20;99.90;;;;;;5013535;28;20036;-66
2021/12/01 10:16:01;;;;;;;0.93;0.60;;;9.20;99.90;;;;;;5014915;28;20418;-66
2021/12/01 10:18:28;;;;;;;1.30;0.70;;;9.20;99.90;;;;;;5016763;28;20457;-66
2021/12/01 10:21:18;;;;;;;1.25;0.68;;;9.20;99.90;;;;;;5010763;28;20037;-66
2021/12/01 10:23:52;;;;;;;1.67;0.63;;;9.20;99.90;;;;;;5013247;28;20033;-66
2021/12/01 10:26:27;;;;;;;2.22;1.05;;;9.20;99.90;;;;;;5012970;28;20041;-66
2021/12/01 10:28:56;;;;;;;1.10;1.00;;;9.30;99.90;;;;;;5030993;28;20033;-66
2021/12/01 10:31:43;;;;;;;1.50;1.00;;;9.20;99.90;;;;;;5002352;28;20038;-66
2021/12/01 10:34:32;;;;;;;1.60;1.00;;;9.20;99.90;;;;;;5010928;28;20370;-66
2021/12/01 10:37:12;;;;;;;1.88;0.90;;;9.20;99.90;;;;;;5012544;28;20151;-66
2021/12/01 10:39:39;;;;;;;3.70;1.10;;;9.20;99.90;;;;;;5011290;28;20038;-66
2021/12/01 10:42:07;;;;;;;1.10;1.00;;;9.30;99.90;;;;;;5012216;28;20460;-66
2021/12/01 10:44:33;;;;;;;1.85;1.15;;;9.30;99.90;;;;;;5012802;28;20044;-66
2021/12/01 10:47:07;;;;;;;2.00;0.95;;;9.40;99.90;;;;;;5007905;28;20042;-66
2021/12/01 10:49:43;;;;;;;2.85;1.30;;;9.40;99.90;;;;;;5014031;28;20515;-66
2021/12/01 10:52:32;;;;;;;1.33;1.17;;;9.40;99.90;;;;;;5008290;28;20037;-66
2021/12/01 10:55:19;;;;;;;1.77;1.30;;;9.40;99.90;;;;;;5009344;28;20460;-66
2021/12/01 10:57:58;;;;;;;1.88;1.27;;;9.40;99.90;;;;;;5007500;28;20033;-66
2021/12/01 11:00:32;;;;;;;1.38;1.27;;;9.50;99.90;;;;;;5015795;28;20224;-66
2021/12/01 11:03:08;;;;;;;1.92;1.75;;;9.50;99.90;;;;;;5015011;28;20462;-66
2021/12/01 11:05:37;;;;;;;2.47;2.13;;;9.50;99.90;;;;;;5011239;28;20523;-66
2021/12/01 11:08:10;;;;;;;2.05;1.90;;;9.50;99.90;;;;;;5011086;28;20133;-66
2021/12/01 11:10:37;;;;;;;3.05;2.25;;;9.50;99.90;;;;;;5014568;28;20034;-66
2021/12/01 11:13:04;;;;;;;2.30;2.10;;;9.50;99.90;;;;;;5010264;28;20143;-66
2021/12/01 11:15:32;;;;;;;2.70;2.40;;;9.60;99.90;;;;;;5014601;28;20037;-66
2021/12/01 11:17:59;;;;;;;4.47;3.05;;;9.70;99.90;;;;;;5012377;28;20041;-66
2021/12/01 11:20:41;;;;;;;4.57;3.00;;;9.70;99.90;;;;;;5016342;28;20106;-66
2021/12/01 11:23:14;;;;;;;3.53;2.85;;;9.70;99.90;;;;;;5010263;28;20030;-66
2021/12/01 11:25:41;;;;;;;3.72;2.95;;;9.70;99.90;;;;;;5013400;28;20022;-66
2021/12/01 11:28:09;;;;;;;3.13;2.80;;;9.70;99.90;;;;;;5009086;28;20103;-66
2021/12/01 11:30:38;;;;;;;5.22;2.72;;;9.70;99.90;;;;;;5009103;28;20154;-66
2021/12/01 11:33:04;;;;;;;3.30;2.83;;;9.70;99.90;;;;;;5004398;28;20030;-66
2021/12/01 11:35:30;;;;;;;2.90;2.60;;;9.60;99.90;;;;;;5017790;28;20052;-66
2021/12/01 11:37:55;;;;;;;6.68;3.00;;;9.60;99.90;;;;;;5011582;28;20386;-66
2021/12/01 11:40:29;;;;;;;3.55;2.05;;;9.50;99.90;;;;;;5014471;28;20034;-66
2021/12/01 11:42:55;;;;;;;;;;;9.50;99.90;;;;;;5019002;28;20124;-65
2021/12/01 11:45:20;;;;;;;2.28;1.85;;;9.40;99.90;;;;;;5013440;28;20268;-66
2021/12/01 11:47:47;;;;;;;5.32;1.80;;;9.40;99.90;;;;;;5008427;28;20028;-66
2021/12/01 11:50:32;;;;;;;4.07;1.92;;;9.40;99.90;;;;;;5008070;28;20064;-66
2021/12/01 11:53:20;;;;;;;5.72;1.65;;;9.30;99.90;;;;;;5017157;28;20093;-66
2021/12/01 11:55:59;;;;;;;3.88;1.58;;;9.20;99.90;;;;;;5009256;28;20019;-66
2021/12/01 11:58:40;;;;;;;5.18;1.27;;;9.30;99.90;;;;;;5012649;28;20128;-66
2021/12/01 12:01:07;;;;;;;4.90;1.60;;;9.20;99.90;;;;;;5013277;28;20040;-66
2021/12/01 12:03:32;;;;;;;3.88;1.15;;;9.30;99.90;;;;;;5012786;28;20075;-66
2021/12/01 12:06:20;;;;;;;3.47;1.27;;;9.30;99.90;;;;;;5006922;28;20062;-66
2021/12/01 12:08:55;;;;;;;6.45;1.27;;;9.30;99.90;;;;;;5006690;28;20046;-66
2021/12/01 12:11:38;;;;;;;6.40;1.65;;;9.30;99.90;;;;;;5016781;28;20034;-66
2021/12/01 12:14:07;;;;;;;5.75;1.52;;;9.30;99.90;;;;;;5005730;28;20065;-66
2021/12/01 12:16:34;;;;;;;6.78;1.63;;;9.30;99.90;;;;;;5004641;28;20498;-66
2021/12/01 12:19:00;;;;;;;4.78;1.45;;;9.30;99.90;;;;;;5014614;28;20037;-65
2021/12/01 12:24:12;;;;;;;7.10;1.38;;;9.30;99.90;;;;;;5013892;28;20103;-66
2021/12/01 12:26:42;;;;;;;4.38;1.23;;;9.40;99.90;;;;;;5008222;28;20034;-66
2021/12/01 12:29:13;;;;;;;4.47;1.50;;;9.50;99.90;;;;;;5009700;28;20029;-66
2021/12/01 12:31:40;;;;;;;5.13;1.63;;;9.40;99.90;;;;;;5012871;28;20030;-66
2021/12/01 12:34:12;;;;;;;6.82;1.30;;;9.40;99.90;;;;;;5013345;28;20401;-66
2021/12/01 12:36:53;;;;;;;7.60;1.27;;;9.30;99.90;;;;;;5013884;28;20386;-68
2021/12/01 12:39:23;;;;;;;15.25;1.85;;;9.30;99.90;;;;;;5013955;28;20571;-67
2021/12/01 12:41:55;;;;;;;7.60;1.60;;;9.30;99.90;;;;;;5007906;28;20168;-68
2021/12/01 12:44:29;;;;;;;4.47;1.25;;;9.30;99.90;;;;;;5007058;28;20524;-68
2021/12/01 12:47:12;;;;;;;9.77;1.50;;;9.40;99.90;;;;;;5009563;28;20045;-68
2021/12/01 12:49:49;;;;;;;10.18;1.58;;;9.40;99.90;;;;;;5014427;28;20457;-68
2021/12/01 12:52:42;;;;;;;4.78;1.20;;;9.40;99.90;;;;;;5006206;28;20088;-66
2021/12/01 12:55:19;;;;;;;3.13;0.80;;;9.30;99.90;;;;;;5009191;28;20037;-66
2021/12/01 12:58:05;;;;;;;5.25;1.25;;;9.20;99.90;;;;;;5017808;28;20343;-66
2021/12/01 13:00:49;;;;;;;6.95;1.00;;;9.20;99.90;;;;;;5015857;28;20041;-67
2021/12/01 13:03:19;;;;;;;5.22;1.00;;;9.10;99.90;;;;;;5010615;28;20025;-67
2021/12/01 13:05:45;;;;;;;5.45;1.00;;;9.20;99.90;;;;;;5013716;28;20148;-67
2021/12/01 13:08:35;;;;;;;5.38;1.02;;;9.20;99.90;;;;;;5013821;28;20022;-67